DLH4EV EDDS-EDDF
Flight info
| Callsign | DLH4EV |
|---|---|
| Flight time | 0h 30m |
| Altitude | 22000 |
| Route | ETASA4B/25 ETASA T163 SPESA SPESA5B |
| Aircraft | A320/M-SDE3FGHIRWY/LB1 |
Departure
| Time | 2026-05-06 18:12 |
|---|---|
| Airport | Stuttgart Airport (EDDS) |
Arrival
| Time | 2026-05-06 18:42 |
|---|---|
| Airport | Frankfurt Main Airport (EDDF) |
| Time | Latitude | Longitude | Altitude | Speed | Heading |
|---|---|---|---|---|---|
| 2026-05-06 17:20 | 48.68884 | 9.19359 | 1315 ft | 0 kts | 343° |
| 2026-05-06 17:57 | 48.68882 | 9.19360 | 1315 ft | 2 kts | 343° |
| 2026-05-06 17:57 | 48.68857 | 9.19371 | 1315 ft | 4 kts | 344° |
| 2026-05-06 17:58 | 48.68835 | 9.19380 | 1314 ft | 4 kts | 348° |
| 2026-05-06 17:58 | 48.68812 | 9.19378 | 1313 ft | 4 kts | 44° |
| 2026-05-06 17:58 | 48.68800 | 9.19346 | 1314 ft | 3 kts | 73° |
| 2026-05-06 17:58 | 48.68799 | 9.19341 | 1314 ft | 0 kts | 74° |
| 2026-05-06 18:04 | 48.68799 | 9.19343 | 1314 ft | 0 kts | 74° |
| 2026-05-06 18:04 | 48.68800 | 9.19345 | 1314 ft | 0 kts | 74° |
| 2026-05-06 18:04 | 48.68811 | 9.19406 | 1313 ft | 12 kts | 74° |
| 2026-05-06 18:05 | 48.68834 | 9.19525 | 1311 ft | 12 kts | 74° |
| 2026-05-06 18:05 | 48.68857 | 9.19648 | 1309 ft | 12 kts | 74° |
| 2026-05-06 18:05 | 48.68881 | 9.19775 | 1306 ft | 13 kts | 73° |
| 2026-05-06 18:05 | 48.68867 | 9.19881 | 1301 ft | 11 kts | 144° |
| 2026-05-06 18:06 | 48.68816 | 9.19967 | 1295 ft | 14 kts | 76° |
| 2026-05-06 18:06 | 48.68845 | 9.20067 | 1294 ft | 10 kts | 75° |
| 2026-05-06 18:06 | 48.68865 | 9.20173 | 1291 ft | 11 kts | 74° |
| 2026-05-06 18:06 | 48.68887 | 9.20289 | 1289 ft | 12 kts | 74° |
| 2026-05-06 18:07 | 48.68911 | 9.20416 | 1288 ft | 13 kts | 73° |
| 2026-05-06 18:07 | 48.68938 | 9.20556 | 1283 ft | 15 kts | 74° |
| 2026-05-06 18:07 | 48.68967 | 9.20713 | 1279 ft | 16 kts | 75° |
| 2026-05-06 18:07 | 48.69001 | 9.20893 | 1273 ft | 19 kts | 73° |
| 2026-05-06 18:08 | 48.69027 | 9.21030 | 1270 ft | 22 kts | 74° |
| 2026-05-06 18:08 | 48.69071 | 9.21270 | 1265 ft | 26 kts | 74° |
| 2026-05-06 18:08 | 48.69125 | 9.21549 | 1260 ft | 29 kts | 73° |
| 2026-05-06 18:08 | 48.69183 | 9.21864 | 1258 ft | 33 kts | 75° |
| 2026-05-06 18:09 | 48.69250 | 9.22209 | 1256 ft | 36 kts | 73° |
| 2026-05-06 18:09 | 48.69321 | 9.22581 | 1234 ft | 38 kts | 75° |
| 2026-05-06 18:09 | 48.69391 | 9.22966 | 1226 ft | 26 kts | 70° |
| 2026-05-06 18:09 | 48.69428 | 9.23140 | 1223 ft | 19 kts | 73° |
| 2026-05-06 18:10 | 48.69467 | 9.23345 | 1218 ft | 22 kts | 75° |
| 2026-05-06 18:10 | 48.69511 | 9.23587 | 1213 ft | 26 kts | 73° |
| 2026-05-06 18:10 | 48.69483 | 9.23734 | 1208 ft | 15 kts | 148° |
| 2026-05-06 18:10 | 48.69385 | 9.23693 | 1205 ft | 18 kts | 236° |
| 2026-05-06 18:11 | 48.69299 | 9.23562 | 1205 ft | 18 kts | 224° |
| 2026-05-06 18:11 | 48.69221 | 9.23418 | 1209 ft | 17 kts | 244° |
| 2026-05-06 18:11 | 48.69167 | 9.23148 | 1214 ft | 52 kts | 253° |
| 2026-05-06 18:11 | 48.69002 | 9.22270 | 1246 ft | 119 kts | 254° |
| 2026-05-06 18:12 | 48.68731 | 9.20841 | 1458 ft | 149 kts | 252° |
| 2026-05-06 18:12 | 48.68453 | 9.19325 | 2134 ft | 153 kts | 253° |
| 2026-05-06 18:12 | 48.68157 | 9.17704 | 2673 ft | 166 kts | 254° |
| 2026-05-06 18:12 | 48.67813 | 9.15919 | 3028 ft | 185 kts | 252° |
| 2026-05-06 18:13 | 48.67421 | 9.13943 | 3415 ft | 207 kts | 253° |
| 2026-05-06 18:13 | 48.67025 | 9.11751 | 3957 ft | 222 kts | 263° |
| 2026-05-06 18:13 | 48.67362 | 9.09465 | 4788 ft | 231 kts | 299° |
| 2026-05-06 18:13 | 48.68356 | 9.07510 | 5650 ft | 239 kts | 311° |
| 2026-05-06 18:14 | 48.69785 | 9.06125 | 6338 ft | 258 kts | 338° |
| 2026-05-06 18:14 | 48.71588 | 9.05597 | 6859 ft | 278 kts | 359° |
| 2026-05-06 18:14 | 48.73537 | 9.05821 | 7661 ft | 284 kts | 3° |
| 2026-05-06 18:14 | 48.75518 | 9.06110 | 8512 ft | 288 kts | 4° |
| 2026-05-06 18:15 | 48.77524 | 9.06416 | 9370 ft | 292 kts | 4° |
| 2026-05-06 18:15 | 48.79570 | 9.06731 | 10104 ft | 300 kts | 4° |
| 2026-05-06 18:15 | 48.81736 | 9.07059 | 10382 ft | 323 kts | 4° |
| 2026-05-06 18:15 | 48.84026 | 9.07406 | 10913 ft | 335 kts | 4° |
| 2026-05-06 18:16 | 48.86374 | 9.07760 | 11611 ft | 341 kts | 4° |
| 2026-05-06 18:16 | 48.88720 | 9.08112 | 12338 ft | 346 kts | 5° |
| 2026-05-06 18:16 | 48.91128 | 9.08476 | 13098 ft | 350 kts | 5° |
| 2026-05-06 18:16 | 48.93573 | 9.08850 | 13790 ft | 355 kts | 5° |
| 2026-05-06 18:17 | 48.96067 | 9.09229 | 14448 ft | 359 kts | 5° |
| 2026-05-06 18:17 | 48.98537 | 9.09601 | 15125 ft | 362 kts | 5° |
| 2026-05-06 18:17 | 49.01040 | 9.09978 | 15731 ft | 366 kts | 5° |
| 2026-05-06 18:17 | 49.03598 | 9.10365 | 16380 ft | 370 kts | 5° |
| 2026-05-06 18:18 | 49.06167 | 9.10754 | 16742 ft | 372 kts | 5° |
| 2026-05-06 18:18 | 49.08736 | 9.11141 | 16820 ft | 364 kts | 5° |
| 2026-05-06 18:18 | 49.11216 | 9.11521 | 16832 ft | 356 kts | 5° |
| 2026-05-06 18:18 | 49.13665 | 9.11899 | 16830 ft | 353 kts | 5° |
| 2026-05-06 18:19 | 49.16107 | 9.12277 | 16837 ft | 353 kts | 5° |
| 2026-05-06 18:19 | 49.18530 | 9.12718 | 16831 ft | 353 kts | 9° |
| 2026-05-06 18:19 | 49.20945 | 9.13414 | 16831 ft | 352 kts | 10° |
| 2026-05-06 18:19 | 49.23349 | 9.14175 | 16824 ft | 354 kts | 11° |
| 2026-05-06 18:20 | 49.25756 | 9.14975 | 16827 ft | 353 kts | 12° |
| 2026-05-06 18:20 | 49.28150 | 9.15782 | 16824 ft | 353 kts | 12° |
| 2026-05-06 18:20 | 49.30508 | 9.16570 | 16826 ft | 353 kts | 12° |
| 2026-05-06 18:20 | 49.32910 | 9.17369 | 16829 ft | 353 kts | 12° |
| 2026-05-06 18:21 | 49.35319 | 9.18168 | 16831 ft | 353 kts | 11° |
| 2026-05-06 18:21 | 49.37722 | 9.18959 | 16828 ft | 354 kts | 12° |
| 2026-05-06 18:21 | 49.40128 | 9.19746 | 16835 ft | 353 kts | 11° |
| 2026-05-06 18:21 | 49.42533 | 9.20530 | 16832 ft | 353 kts | 11° |
| 2026-05-06 18:22 | 49.44941 | 9.21313 | 16833 ft | 353 kts | 11° |
| 2026-05-06 18:22 | 49.47336 | 9.22098 | 16706 ft | 349 kts | 11° |
| 2026-05-06 18:22 | 49.49693 | 9.22877 | 16443 ft | 343 kts | 11° |
| 2026-05-06 18:22 | 49.52002 | 9.23640 | 16182 ft | 336 kts | 11° |
| 2026-05-06 18:23 | 49.54279 | 9.24393 | 15925 ft | 331 kts | 11° |
| 2026-05-06 18:23 | 49.56521 | 9.25131 | 15669 ft | 328 kts | 11° |
| 2026-05-06 18:23 | 49.58725 | 9.25856 | 15422 ft | 328 kts | 11° |
| 2026-05-06 18:23 | 49.60945 | 9.26591 | 15183 ft | 324 kts | 11° |
| 2026-05-06 18:24 | 49.63140 | 9.27323 | 14854 ft | 321 kts | 11° |
| 2026-05-06 18:24 | 49.65328 | 9.28049 | 14483 ft | 322 kts | 11° |
| 2026-05-06 18:24 | 49.67519 | 9.28772 | 14103 ft | 322 kts | 11° |
| 2026-05-06 18:24 | 49.69706 | 9.29494 | 13724 ft | 322 kts | 10° |
| 2026-05-06 18:25 | 49.71890 | 9.30218 | 13328 ft | 321 kts | 11° |
| 2026-05-06 18:25 | 49.74075 | 9.30939 | 12934 ft | 319 kts | 11° |
| 2026-05-06 18:25 | 49.76246 | 9.31641 | 12531 ft | 318 kts | 11° |
| 2026-05-06 18:25 | 49.78417 | 9.32329 | 12121 ft | 317 kts | 10° |
| 2026-05-06 18:26 | 49.80576 | 9.33011 | 11723 ft | 317 kts | 10° |
| 2026-05-06 18:26 | 49.82752 | 9.33482 | 11308 ft | 314 kts | 356° |
| 2026-05-06 18:26 | 49.84664 | 9.32862 | 10946 ft | 309 kts | 333° |
| 2026-05-06 18:26 | 49.86421 | 9.30932 | 10797 ft | 294 kts | 309° |
| 2026-05-06 18:27 | 49.87467 | 9.28321 | 10809 ft | 288 kts | 288° |
| 2026-05-06 18:27 | 49.88066 | 9.25361 | 10724 ft | 289 kts | 284° |
| 2026-05-06 18:27 | 49.88646 | 9.22330 | 10177 ft | 294 kts | 284° |
| 2026-05-06 18:27 | 49.89220 | 9.19322 | 9933 ft | 287 kts | 284° |
| 2026-05-06 18:28 | 49.89782 | 9.16379 | 9723 ft | 282 kts | 284° |
| 2026-05-06 18:28 | 49.90332 | 9.13471 | 9595 ft | 281 kts | 284° |
| 2026-05-06 18:28 | 49.90877 | 9.10567 | 9469 ft | 280 kts | 284° |
| 2026-05-06 18:28 | 49.91421 | 9.07678 | 9334 ft | 278 kts | 284° |
| 2026-05-06 18:29 | 49.91963 | 9.04806 | 9203 ft | 277 kts | 284° |
| 2026-05-06 18:29 | 49.92504 | 9.01949 | 9072 ft | 276 kts | 284° |
| 2026-05-06 18:29 | 49.93041 | 8.99087 | 8940 ft | 275 kts | 284° |
| 2026-05-06 18:29 | 49.93578 | 8.96238 | 8815 ft | 275 kts | 284° |
| 2026-05-06 18:30 | 49.94114 | 8.93400 | 8679 ft | 274 kts | 284° |
| 2026-05-06 18:30 | 49.94896 | 8.90710 | 8550 ft | 277 kts | 304° |
| 2026-05-06 18:30 | 49.96321 | 8.88697 | 8421 ft | 282 kts | 327° |
| 2026-05-06 18:30 | 49.98178 | 8.87705 | 8293 ft | 287 kts | 351° |
| 2026-05-06 18:31 | 50.00171 | 8.87975 | 8167 ft | 292 kts | 17° |
| 2026-05-06 18:31 | 50.01921 | 8.89523 | 7824 ft | 292 kts | 43° |
| 2026-05-06 18:31 | 50.03071 | 8.92096 | 7403 ft | 291 kts | 69° |
| 2026-05-06 18:31 | 50.03733 | 8.95065 | 6975 ft | 291 kts | 71° |
| 2026-05-06 18:32 | 50.04406 | 8.98024 | 6817 ft | 290 kts | 70° |
| 2026-05-06 18:32 | 50.05100 | 9.00984 | 6826 ft | 292 kts | 70° |
| 2026-05-06 18:32 | 50.05801 | 9.03948 | 6772 ft | 292 kts | 70° |
| 2026-05-06 18:32 | 50.06505 | 9.06917 | 6648 ft | 292 kts | 70° |
| 2026-05-06 18:33 | 50.07197 | 9.09857 | 6521 ft | 287 kts | 70° |
| 2026-05-06 18:33 | 50.07918 | 9.12641 | 6390 ft | 274 kts | 59° |
| 2026-05-06 18:33 | 50.09195 | 9.14735 | 6273 ft | 258 kts | 28° |
| 2026-05-06 18:33 | 50.10858 | 9.15520 | 6146 ft | 248 kts | 356° |
| 2026-05-06 18:34 | 50.12482 | 9.14902 | 6015 ft | 239 kts | 325° |
| 2026-05-06 18:34 | 50.13610 | 9.13113 | 5886 ft | 231 kts | 294° |
| 2026-05-06 18:34 | 50.14195 | 9.10796 | 5761 ft | 229 kts | 285° |
| 2026-05-06 18:34 | 50.14670 | 9.08422 | 5635 ft | 230 kts | 284° |
| 2026-05-06 18:35 | 50.14949 | 9.06033 | 5501 ft | 226 kts | 266° |
| 2026-05-06 18:35 | 50.14617 | 9.03659 | 5382 ft | 225 kts | 249° |
| 2026-05-06 18:35 | 50.14077 | 9.01365 | 5255 ft | 225 kts | 249° |
| 2026-05-06 18:35 | 50.13539 | 8.99075 | 5127 ft | 225 kts | 249° |
| 2026-05-06 18:36 | 50.13003 | 8.96783 | 4997 ft | 225 kts | 249° |
| 2026-05-06 18:36 | 50.12467 | 8.94494 | 4881 ft | 224 kts | 249° |
| 2026-05-06 18:36 | 50.11933 | 8.92214 | 4777 ft | 223 kts | 249° |
| 2026-05-06 18:36 | 50.11407 | 8.89973 | 4591 ft | 217 kts | 249° |
| 2026-05-06 18:37 | 50.10895 | 8.87792 | 4311 ft | 211 kts | 250° |
| 2026-05-06 18:37 | 50.10566 | 8.86393 | 4131 ft | 204 kts | 250° |
| 2026-05-06 18:37 | 50.09931 | 8.83695 | 3774 ft | 192 kts | 250° |
| 2026-05-06 18:37 | 50.09482 | 8.81788 | 3544 ft | 188 kts | 251° |
| 2026-05-06 18:38 | 50.09037 | 8.79900 | 3293 ft | 183 kts | 251° |
| 2026-05-06 18:38 | 50.08604 | 8.78064 | 3036 ft | 179 kts | 251° |
| 2026-05-06 18:38 | 50.08184 | 8.76285 | 2803 ft | 174 kts | 251° |
| 2026-05-06 18:38 | 50.07777 | 8.74563 | 2570 ft | 162 kts | 252° |
| 2026-05-06 18:39 | 50.07536 | 8.73195 | 2476 ft | 147 kts | 262° |
| 2026-05-06 18:39 | 50.07470 | 8.72566 | 2429 ft | 143 kts | 264° |
| 2026-05-06 18:39 | 50.07323 | 8.71116 | 2132 ft | 140 kts | 262° |
| 2026-05-06 18:40 | 50.06972 | 8.69182 | 1791 ft | 139 kts | 255° |
| 2026-05-06 18:40 | 50.06622 | 8.67774 | 1660 ft | 139 kts | 252° |
| 2026-05-06 18:40 | 50.06275 | 8.66372 | 1498 ft | 138 kts | 254° |
| 2026-05-06 18:40 | 50.05967 | 8.64960 | 1379 ft | 138 kts | 256° |
| 2026-05-06 18:41 | 50.05664 | 8.63527 | 1156 ft | 140 kts | 253° |
| 2026-05-06 18:41 | 50.05314 | 8.62127 | 915 ft | 138 kts | 252° |
| 2026-05-06 18:41 | 50.04989 | 8.60728 | 723 ft | 137 kts | 254° |
| 2026-05-06 18:41 | 50.04668 | 8.59345 | 517 ft | 138 kts | 252° |
| 2026-05-06 18:42 | 50.04336 | 8.57968 | 371 ft | 129 kts | 253° |
| 2026-05-06 18:42 | 50.04073 | 8.56851 | 363 ft | 85 kts | 250° |
| 2026-05-06 18:42 | 50.03897 | 8.56107 | 352 ft | 56 kts | 251° |
| 2026-05-06 18:42 | 50.03888 | 8.55815 | 350 ft | 24 kts | 280° |
| 2026-05-06 18:43 | 50.03924 | 8.55637 | 357 ft | 10 kts | 332° |
| 2026-05-06 18:43 | 50.03963 | 8.55643 | 350 ft | 4 kts | 27° |
| 2026-05-06 18:43 | 50.03975 | 8.55658 | 351 ft | 1 kts | 42° |
| 2026-05-06 18:43 | 50.03976 | 8.55659 | 351 ft | 0 kts | 44° |
| 2026-05-06 18:44 | 50.03991 | 8.55710 | 351 ft | 13 kts | 71° |
| 2026-05-06 18:44 | 50.04010 | 8.55790 | 357 ft | 11 kts | 69° |
| 2026-05-06 18:44 | 50.04035 | 8.55893 | 352 ft | 9 kts | 69° |
| 2026-05-06 18:44 | 50.04056 | 8.55979 | 356 ft | 7 kts | 69° |
| 2026-05-06 18:45 | 50.04075 | 8.56060 | 356 ft | 13 kts | 70° |
| 2026-05-06 18:45 | 50.04125 | 8.56269 | 356 ft | 26 kts | 70° |
| 2026-05-06 18:45 | 50.04188 | 8.56539 | 362 ft | 27 kts | 69° |
| 2026-05-06 18:45 | 50.04233 | 8.56722 | 359 ft | 27 kts | 69° |
| 2026-05-06 18:46 | 50.04321 | 8.57087 | 367 ft | 28 kts | 70° |
| 2026-05-06 18:46 | 50.04389 | 8.57376 | 363 ft | 29 kts | 69° |
| 2026-05-06 18:46 | 50.04461 | 8.57676 | 366 ft | 30 kts | 70° |
| 2026-05-06 18:46 | 50.04534 | 8.57983 | 366 ft | 31 kts | 69° |
| 2026-05-06 18:47 | 50.04603 | 8.58270 | 373 ft | 28 kts | 69° |
| 2026-05-06 18:47 | 50.04671 | 8.58555 | 369 ft | 29 kts | 70° |
| 2026-05-06 18:47 | 50.04725 | 8.58748 | 370 ft | 11 kts | 43° |
| 2026-05-06 18:47 | 50.04804 | 8.58731 | 365 ft | 14 kts | 339° |
| 2026-05-06 18:48 | 50.04909 | 8.58674 | 363 ft | 13 kts | 348° |
| 2026-05-06 18:48 | 50.04974 | 8.58770 | 362 ft | 14 kts | 70° |
| 2026-05-06 18:48 | 50.05006 | 8.58904 | 363 ft | 12 kts | 69° |
| 2026-05-06 18:48 | 50.05032 | 8.59015 | 364 ft | 5 kts | 71° |
| 2026-05-06 18:49 | 50.05022 | 8.59042 | 360 ft | 3 kts | 148° |
| 2026-05-06 18:49 | 50.04989 | 8.59059 | 365 ft | 4 kts | 159° |
| 2026-05-06 18:49 | 50.04974 | 8.59068 | 362 ft | 3 kts | 159° |
| 2026-05-06 18:49 | 50.04962 | 8.59074 | 362 ft | 2 kts | 159° |
| 2026-05-06 18:50 | 50.04960 | 8.59076 | 366 ft | 0 kts | 159° |